sensor_id;sensor_type;location;lat;lon;timestamp;P1;durP1;ratioP1;P2;durP2;ratioP2
19675;SDS011;39539;52.202;9.876;2022-11-20T00:02:18;13.40;;;11.00;;
19675;SDS011;39539;52.202;9.876;2022-11-20T00:04:43;14.15;;;11.52;;
19675;SDS011;39539;52.202;9.876;2022-11-20T00:07:08;13.60;;;12.07;;
19675;SDS011;39539;52.202;9.876;2022-11-20T00:09:34;14.13;;;12.63;;
19675;SDS011;39539;52.202;9.876;2022-11-20T00:11:59;14.93;;;13.30;;
19675;SDS011;39539;52.202;9.876;2022-11-20T00:14:24;14.90;;;12.60;;
19675;SDS011;39539;52.202;9.876;2022-11-20T00:16:51;14.27;;;12.43;;
19675;SDS011;39539;52.202;9.876;2022-11-20T00:19:18;13.85;;;12.30;;
19675;SDS011;39539;52.202;9.876;2022-11-20T00:21:43;14.52;;;12.93;;
19675;SDS011;39539;52.202;9.876;2022-11-20T00:24:09;13.57;;;11.68;;
19675;SDS011;39539;52.202;9.876;2022-11-20T00:26:35;15.68;;;13.50;;
19675;SDS011;39539;52.202;9.876;2022-11-20T00:29:01;17.25;;;12.63;;
19675;SDS011;39539;52.202;9.876;2022-11-20T00:31:28;14.90;;;13.40;;
19675;SDS011;39539;52.202;9.876;2022-11-20T00:33:58;15.68;;;13.35;;
19675;SDS011;39539;52.202;9.876;2022-11-20T00:36:24;15.63;;;13.02;;
19675;SDS011;39539;52.202;9.876;2022-11-20T00:38:51;13.40;;;12.02;;
19675;SDS011;39539;52.202;9.876;2022-11-20T00:41:18;15.87;;;12.57;;
19675;SDS011;39539;52.202;9.876;2022-11-20T00:43:43;16.70;;;12.80;;
19675;SDS011;39539;52.202;9.876;2022-11-20T00:46:10;14.83;;;12.00;;
19675;SDS011;39539;52.202;9.876;2022-11-20T00:48:38;13.38;;;11.75;;
19675;SDS011;39539;52.202;9.876;2022-11-20T00:51:04;17.52;;;12.85;;
19675;SDS011;39539;52.202;9.876;2022-11-20T00:53:30;16.73;;;12.27;;
19675;SDS011;39539;52.202;9.876;2022-11-20T00:55:56;13.38;;;11.80;;
19675;SDS011;39539;52.202;9.876;2022-11-20T00:58:24;16.77;;;14.27;;
19675;SDS011;39539;52.202;9.876;2022-11-20T01:00:50;16.20;;;13.00;;
19675;SDS011;39539;52.202;9.876;2022-11-20T01:03:18;14.85;;;13.25;;
19675;SDS011;39539;52.202;9.876;2022-11-20T01:05:44;14.75;;;13.07;;
19675;SDS011;39539;52.202;9.876;2022-11-20T01:08:09;14.55;;;13.05;;
19675;SDS011;39539;52.202;9.876;2022-11-20T01:10:35;15.02;;;13.10;;
19675;SDS011;39539;52.202;9.876;2022-11-20T01:13:02;15.23;;;12.82;;
19675;SDS011;39539;52.202;9.876;2022-11-20T01:15:46;14.50;;;12.95;;
19675;SDS011;39539;52.202;9.876;2022-11-20T01:18:12;15.55;;;13.52;;
19675;SDS011;39539;52.202;9.876;2022-11-20T01:20:37;14.60;;;12.25;;
19675;SDS011;39539;52.202;9.876;2022-11-20T01:23:03;15.93;;;13.77;;
19675;SDS011;39539;52.202;9.876;2022-11-20T01:25:29;15.87;;;12.87;;
19675;SDS011;39539;52.202;9.876;2022-11-20T01:27:54;17.35;;;12.85;;
19675;SDS011;39539;52.202;9.876;2022-11-20T01:30:19;15.50;;;12.40;;
19675;SDS011;39539;52.202;9.876;2022-11-20T01:32:45;17.75;;;13.02;;
19675;SDS011;39539;52.202;9.876;2022-11-20T01:35:10;17.65;;;13.00;;
19675;SDS011;39539;52.202;9.876;2022-11-20T01:37:35;13.75;;;12.18;;
19675;SDS011;39539;52.202;9.876;2022-11-20T01:40:01;15.43;;;12.07;;
19675;SDS011;39539;52.202;9.876;2022-11-20T01:42:27;15.02;;;11.23;;
19675;SDS011;39539;52.202;9.876;2022-11-20T01:48:14;13.73;;;11.85;;
19675;SDS011;39539;52.202;9.876;2022-11-20T01:50:39;13.82;;;11.75;;
19675;SDS011;39539;52.202;9.876;2022-11-20T01:53:08;14.32;;;12.77;;
19675;SDS011;39539;52.202;9.876;2022-11-20T01:55:43;16.65;;;12.15;;
19675;SDS011;39539;52.202;9.876;2022-11-20T01:58:13;16.13;;;12.55;;
19675;SDS011;39539;52.202;9.876;2022-11-20T02:00:38;16.27;;;13.67;;
19675;SDS011;39539;52.202;9.876;2022-11-20T02:03:07;14.80;;;12.43;;
19675;SDS011;39539;52.202;9.876;2022-11-20T02:08:57;16.85;;;13.52;;
19675;SDS011;39539;52.202;9.876;2022-11-20T02:11:22;15.98;;;12.10;;
19675;SDS011;39539;52.202;9.876;2022-11-20T02:13:48;14.95;;;11.80;;
19675;SDS011;39539;52.202;9.876;2022-11-20T02:16:15;18.00;;;12.88;;
19675;SDS011;39539;52.202;9.876;2022-11-20T02:18:42;14.15;;;11.88;;
19675;SDS011;39539;52.202;9.876;2022-11-20T02:21:13;13.85;;;12.35;;
19675;SDS011;39539;52.202;9.876;2022-11-20T02:26:26;16.42;;;11.70;;
19675;SDS011;39539;52.202;9.876;2022-11-20T02:28:55;13.55;;;11.43;;
19675;SDS011;39539;52.202;9.876;2022-11-20T02:31:21;13.02;;;10.65;;
19675;SDS011;39539;52.202;9.876;2022-11-20T02:33:47;12.48;;;11.18;;
19675;SDS011;39539;52.202;9.876;2022-11-20T02:36:14;13.00;;;10.65;;
19675;SDS011;39539;52.202;9.876;2022-11-20T02:38:41;12.27;;;10.95;;
19675;SDS011;39539;52.202;9.876;2022-11-20T02:41:07;15.50;;;12.10;;
19675;SDS011;39539;52.202;9.876;2022-11-20T02:43:32;14.90;;;10.77;;
19675;SDS011;39539;52.202;9.876;2022-11-20T02:45:58;12.85;;;11.23;;
19675;SDS011;39539;52.202;9.876;2022-11-20T02:48:23;12.82;;;11.32;;
19675;SDS011;39539;52.202;9.876;2022-11-20T02:50:49;12.32;;;11.02;;
19675;SDS011;39539;52.202;9.876;2022-11-20T02:53:14;14.18;;;11.40;;
19675;SDS011;39539;52.202;9.876;2022-11-20T02:55:39;12.33;;;10.70;;
19675;SDS011;39539;52.202;9.876;2022-11-20T02:58:05;13.15;;;11.07;;
19675;SDS011;39539;52.202;9.876;2022-11-20T03:00:30;15.53;;;12.27;;
19675;SDS011;39539;52.202;9.876;2022-11-20T03:02:56;13.20;;;11.07;;
19675;SDS011;39539;52.202;9.876;2022-11-20T03:05:22;13.77;;;11.68;;
19675;SDS011;39539;52.202;9.876;2022-11-20T03:07:47;13.87;;;11.63;;
19675;SDS011;39539;52.202;9.876;2022-11-20T03:10:13;13.13;;;11.48;;
19675;SDS011;39539;52.202;9.876;2022-11-20T03:12:38;15.57;;;11.70;;
19675;SDS011;39539;52.202;9.876;2022-11-20T03:15:04;13.60;;;10.68;;
19675;SDS011;39539;52.202;9.876;2022-11-20T03:17:29;13.23;;;11.32;;
19675;SDS011;39539;52.202;9.876;2022-11-20T03:19:55;15.27;;;12.27;;
19675;SDS011;39539;52.202;9.876;2022-11-20T03:22:22;13.23;;;11.93;;
19675;SDS011;39539;52.202;9.876;2022-11-20T03:24:47;15.75;;;12.75;;
19675;SDS011;39539;52.202;9.876;2022-11-20T03:27:13;12.45;;;11.05;;
19675;SDS011;39539;52.202;9.876;2022-11-20T03:29:38;13.73;;;11.20;;
19675;SDS011;39539;52.202;9.876;2022-11-20T03:32:03;13.63;;;11.18;;
19675;SDS011;39539;52.202;9.876;2022-11-20T03:34:29;13.75;;;10.98;;
19675;SDS011;39539;52.202;9.876;2022-11-20T03:36:54;11.37;;;10.17;;
19675;SDS011;39539;52.202;9.876;2022-11-20T03:39:20;14.18;;;12.18;;
19675;SDS011;39539;52.202;9.876;2022-11-20T03:41:45;12.07;;;10.23;;
19675;SDS011;39539;52.202;9.876;2022-11-20T03:44:10;14.80;;;11.40;;
19675;SDS011;39539;52.202;9.876;2022-11-20T03:46:36;12.57;;;10.73;;
19675;SDS011;39539;52.202;9.876;2022-11-20T03:49:02;13.55;;;11.05;;
19675;SDS011;39539;52.202;9.876;2022-11-20T03:51:29;12.35;;;9.85;;
19675;SDS011;39539;52.202;9.876;2022-11-20T03:53:57;12.88;;;10.50;;
19675;SDS011;39539;52.202;9.876;2022-11-20T03:56:26;12.10;;;10.85;;
19675;SDS011;39539;52.202;9.876;2022-11-20T03:58:54;14.32;;;11.63;;
19675;SDS011;39539;52.202;9.876;2022-11-20T04:01:20;14.35;;;11.13;;
19675;SDS011;39539;52.202;9.876;2022-11-20T04:03:53;12.75;;;11.43;;
19675;SDS011;39539;52.202;9.876;2022-11-20T04:06:21;14.50;;;11.48;;
19675;SDS011;39539;52.202;9.876;2022-11-20T04:08:48;12.38;;;10.30;;
19675;SDS011;39539;52.202;9.876;2022-11-20T04:11:18;12.32;;;10.52;;
19675;SDS011;39539;52.202;9.876;2022-11-20T04:13:46;14.35;;;11.27;;
19675;SDS011;39539;52.202;9.876;2022-11-20T04:16:13;11.25;;;10.05;;
19675;SDS011;39539;52.202;9.876;2022-11-20T04:18:39;12.48;;;9.85;;
19675;SDS011;39539;52.202;9.876;2022-11-20T04:21:04;13.75;;;10.63;;
19675;SDS011;39539;52.202;9.876;2022-11-20T04:23:31;12.18;;;10.48;;
19675;SDS011;39539;52.202;9.876;2022-11-20T04:28:35;12.52;;;10.63;;
19675;SDS011;39539;52.202;9.876;2022-11-20T04:31:01;12.02;;;10.07;;
19675;SDS011;39539;52.202;9.876;2022-11-20T04:33:38;11.23;;;9.80;;
19675;SDS011;39539;52.202;9.876;2022-11-20T04:36:14;12.40;;;10.70;;
19675;SDS011;39539;52.202;9.876;2022-11-20T04:38:39;12.45;;;10.45;;
19675;SDS011;39539;52.202;9.876;2022-11-20T04:41:06;12.63;;;11.32;;
19675;SDS011;39539;52.202;9.876;2022-11-20T04:43:33;14.38;;;11.00;;
19675;SDS011;39539;52.202;9.876;2022-11-20T04:45:59;12.43;;;11.20;;
19675;SDS011;39539;52.202;9.876;2022-11-20T04:48:26;13.00;;;11.57;;
19675;SDS011;39539;52.202;9.876;2022-11-20T04:50:52;11.90;;;10.70;;
19675;SDS011;39539;52.202;9.876;2022-11-20T04:53:19;15.02;;;11.88;;
19675;SDS011;39539;52.202;9.876;2022-11-20T04:55:45;12.82;;;11.52;;
19675;SDS011;39539;52.202;9.876;2022-11-20T04:58:11;12.45;;;11.15;;
19675;SDS011;39539;52.202;9.876;2022-11-20T05:00:36;13.18;;;11.40;;
19675;SDS011;39539;52.202;9.876;2022-11-20T05:03:02;14.00;;;11.73;;
19675;SDS011;39539;52.202;9.876;2022-11-20T05:05:28;13.07;;;10.65;;
19675;SDS011;39539;52.202;9.876;2022-11-20T05:07:57;12.20;;;10.63;;
19675;SDS011;39539;52.202;9.876;2022-11-20T05:10:24;12.65;;;9.82;;
19675;SDS011;39539;52.202;9.876;2022-11-20T05:12:50;11.90;;;10.45;;
19675;SDS011;39539;52.202;9.876;2022-11-20T05:15:17;10.60;;;9.45;;
19675;SDS011;39539;52.202;9.876;2022-11-20T05:17:48;11.85;;;10.63;;
19675;SDS011;39539;52.202;9.876;2022-11-20T05:20:15;11.55;;;9.95;;
19675;SDS011;39539;52.202;9.876;2022-11-20T05:22:40;11.25;;;9.98;;
19675;SDS011;39539;52.202;9.876;2022-11-20T05:25:06;11.18;;;9.90;;
19675;SDS011;39539;52.202;9.876;2022-11-20T05:27:31;10.23;;;9.18;;
19675;SDS011;39539;52.202;9.876;2022-11-20T05:29:57;10.45;;;9.35;;
19675;SDS011;39539;52.202;9.876;2022-11-20T05:32:25;10.15;;;9.25;;
19675;SDS011;39539;52.202;9.876;2022-11-20T05:34:52;11.38;;;9.73;;
19675;SDS011;39539;52.202;9.876;2022-11-20T05:37:17;10.13;;;9.13;;
19675;SDS011;39539;52.202;9.876;2022-11-20T05:39:43;10.63;;;9.10;;
19675;SDS011;39539;52.202;9.876;2022-11-20T05:42:08;11.05;;;9.48;;
19675;SDS011;39539;52.202;9.876;2022-11-20T05:44:52;11.07;;;9.85;;
19675;SDS011;39539;52.202;9.876;2022-11-20T05:47:17;11.82;;;10.60;;
19675;SDS011;39539;52.202;9.876;2022-11-20T05:49:43;12.10;;;9.77;;
19675;SDS011;39539;52.202;9.876;2022-11-20T05:52:08;10.52;;;9.48;;
19675;SDS011;39539;52.202;9.876;2022-11-20T05:54:34;11.23;;;10.00;;
19675;SDS011;39539;52.202;9.876;2022-11-20T05:56:59;10.23;;;9.13;;
19675;SDS011;39539;52.202;9.876;2022-11-20T05:59:24;11.80;;;10.60;;
19675;SDS011;39539;52.202;9.876;2022-11-20T06:01:50;11.27;;;10.00;;
19675;SDS011;39539;52.202;9.876;2022-11-20T06:04:15;11.23;;;10.13;;
19675;SDS011;39539;52.202;9.876;2022-11-20T06:06:40;13.55;;;10.88;;
19675;SDS011;39539;52.202;9.876;2022-11-20T06:09:06;11.60;;;10.13;;
19675;SDS011;39539;52.202;9.876;2022-11-20T06:11:31;11.98;;;10.77;;
19675;SDS011;39539;52.202;9.876;2022-11-20T06:13:57;12.07;;;10.70;;
19675;SDS011;39539;52.202;9.876;2022-11-20T06:16:22;11.00;;;9.80;;
19675;SDS011;39539;52.202;9.876;2022-11-20T06:18:47;12.75;;;11.38;;
19675;SDS011;39539;52.202;9.876;2022-11-20T06:21:14;11.07;;;9.98;;
19675;SDS011;39539;52.202;9.876;2022-11-20T06:23:41;11.52;;;10.27;;
19675;SDS011;39539;52.202;9.876;2022-11-20T06:26:07;12.80;;;11.15;;
19675;SDS011;39539;52.202;9.876;2022-11-20T06:28:40;12.00;;;10.77;;
19675;SDS011;39539;52.202;9.876;2022-11-20T06:31:07;12.43;;;11.18;;
19675;SDS011;39539;52.202;9.876;2022-11-20T06:33:36;13.55;;;11.70;;
19675;SDS011;39539;52.202;9.876;2022-11-20T06:36:02;13.45;;;10.77;;
19675;SDS011;39539;52.202;9.876;2022-11-20T06:38:29;13.27;;;11.93;;
19675;SDS011;39539;52.202;9.876;2022-11-20T06:40:55;12.95;;;11.30;;
19675;SDS011;39539;52.202;9.876;2022-11-20T06:43:21;12.77;;;10.80;;
19675;SDS011;39539;52.202;9.876;2022-11-20T06:45:51;12.68;;;11.48;;
19675;SDS011;39539;52.202;9.876;2022-11-20T06:48:18;12.57;;;11.05;;
19675;SDS011;39539;52.202;9.876;2022-11-20T06:50:43;13.15;;;11.95;;
19675;SDS011;39539;52.202;9.876;2022-11-20T06:53:08;12.38;;;11.10;;
19675;SDS011;39539;52.202;9.876;2022-11-20T06:55:34;11.13;;;10.00;;
19675;SDS011;39539;52.202;9.876;2022-11-20T06:57:59;13.33;;;11.83;;
19675;SDS011;39539;52.202;9.876;2022-11-20T07:00:24;13.80;;;12.70;;
19675;SDS011;39539;52.202;9.876;2022-11-20T07:02:50;13.82;;;12.52;;
19675;SDS011;39539;52.202;9.876;2022-11-20T07:05:16;13.18;;;11.98;;
19675;SDS011;39539;52.202;9.876;2022-11-20T07:07:42;12.40;;;11.25;;
19675;SDS011;39539;52.202;9.876;2022-11-20T07:10:09;13.07;;;11.82;;
19675;SDS011;39539;52.202;9.876;2022-11-20T07:12:35;11.50;;;10.40;;
19675;SDS011;39539;52.202;9.876;2022-11-20T07:15:00;12.25;;;11.02;;
19675;SDS011;39539;52.202;9.876;2022-11-20T07:17:26;11.85;;;10.68;;
19675;SDS011;39539;52.202;9.876;2022-11-20T07:19:51;12.90;;;11.60;;
19675;SDS011;39539;52.202;9.876;2022-11-20T07:22:16;13.30;;;11.95;;
19675;SDS011;39539;52.202;9.876;2022-11-20T07:24:42;12.85;;;10.98;;
19675;SDS011;39539;52.202;9.876;2022-11-20T07:27:07;11.63;;;10.40;;
19675;SDS011;39539;52.202;9.876;2022-11-20T07:29:33;11.32;;;10.18;;
19675;SDS011;39539;52.202;9.876;2022-11-20T07:31:58;12.25;;;11.05;;
19675;SDS011;39539;52.202;9.876;2022-11-20T07:34:24;11.75;;;10.55;;
19675;SDS011;39539;52.202;9.876;2022-11-20T07:36:49;11.55;;;10.35;;
19675;SDS011;39539;52.202;9.876;2022-11-20T07:39:15;11.10;;;10.00;;
19675;SDS011;39539;52.202;9.876;2022-11-20T07:41:40;12.80;;;9.88;;
19675;SDS011;39539;52.202;9.876;2022-11-20T07:44:06;10.77;;;9.68;;
19675;SDS011;39539;52.202;9.876;2022-11-20T07:46:31;11.23;;;10.15;;
19675;SDS011;39539;52.202;9.876;2022-11-20T07:48:56;10.60;;;9.50;;
19675;SDS011;39539;52.202;9.876;2022-11-20T07:51:22;10.20;;;9.10;;
19675;SDS011;39539;52.202;9.876;2022-11-20T07:53:50;11.52;;;10.52;;
19675;SDS011;39539;52.202;9.876;2022-11-20T07:56:16;11.68;;;10.68;;
19675;SDS011;39539;52.202;9.876;2022-11-20T07:58:41;11.63;;;10.55;;
19675;SDS011;39539;52.202;9.876;2022-11-20T08:01:07;10.50;;;9.60;;
19675;SDS011;39539;52.202;9.876;2022-11-20T08:03:33;11.02;;;9.93;;
19675;SDS011;39539;52.202;9.876;2022-11-20T08:05:59;12.60;;;11.43;;
19675;SDS011;39539;52.202;9.876;2022-11-20T08:08:25;11.15;;;10.00;;
19675;SDS011;39539;52.202;9.876;2022-11-20T08:10:51;11.65;;;10.52;;
19675;SDS011;39539;52.202;9.876;2022-11-20T08:13:17;11.93;;;10.60;;
19675;SDS011;39539;52.202;9.876;2022-11-20T08:16:01;12.13;;;11.02;;
19675;SDS011;39539;52.202;9.876;2022-11-20T08:18:26;10.88;;;9.77;;
19675;SDS011;39539;52.202;9.876;2022-11-20T08:20:52;11.07;;;9.75;;
19675;SDS011;39539;52.202;9.876;2022-11-20T08:23:17;11.20;;;10.13;;
19675;SDS011;39539;52.202;9.876;2022-11-20T08:25:42;11.05;;;10.05;;
19675;SDS011;39539;52.202;9.876;2022-11-20T08:28:08;11.30;;;10.10;;
19675;SDS011;39539;52.202;9.876;2022-11-20T08:30:35;11.82;;;10.55;;
19675;SDS011;39539;52.202;9.876;2022-11-20T08:33:03;11.85;;;10.68;;
19675;SDS011;39539;52.202;9.876;2022-11-20T08:35:35;12.18;;;10.98;;
19675;SDS011;39539;52.202;9.876;2022-11-20T08:38:02;13.57;;;12.27;;
19675;SDS011;39539;52.202;9.876;2022-11-20T08:40:28;12.45;;;11.18;;
19675;SDS011;39539;52.202;9.876;2022-11-20T08:42:54;12.45;;;11.25;;
19675;SDS011;39539;52.202;9.876;2022-11-20T08:45:19;12.07;;;10.98;;
19675;SDS011;39539;52.202;9.876;2022-11-20T08:47:45;12.05;;;10.95;;
19675;SDS011;39539;52.202;9.876;2022-11-20T08:50:11;12.40;;;11.25;;
19675;SDS011;39539;52.202;9.876;2022-11-20T08:52:38;12.80;;;11.63;;
19675;SDS011;39539;52.202;9.876;2022-11-20T08:55:04;12.55;;;11.45;;
19675;SDS011;39539;52.202;9.876;2022-11-20T08:57:32;12.43;;;11.18;;
19675;SDS011;39539;52.202;9.876;2022-11-20T08:59:58;13.57;;;12.35;;
19675;SDS011;39539;52.202;9.876;2022-11-20T09:02:23;13.75;;;12.35;;
19675;SDS011;39539;52.202;9.876;2022-11-20T09:04:49;12.60;;;11.40;;
19675;SDS011;39539;52.202;9.876;2022-11-20T09:07:14;12.18;;;10.93;;
19675;SDS011;39539;52.202;9.876;2022-11-20T09:09:39;12.40;;;11.20;;
19675;SDS011;39539;52.202;9.876;2022-11-20T09:12:05;11.23;;;10.13;;
19675;SDS011;39539;52.202;9.876;2022-11-20T09:14:30;11.05;;;9.38;;
19675;SDS011;39539;52.202;9.876;2022-11-20T09:16:57;10.68;;;9.65;;
19675;SDS011;39539;52.202;9.876;2022-11-20T09:19:23;10.45;;;9.35;;
19675;SDS011;39539;52.202;9.876;2022-11-20T09:21:49;14.95;;;9.32;;
19675;SDS011;39539;52.202;9.876;2022-11-20T09:24:14;10.38;;;9.45;;
19675;SDS011;39539;52.202;9.876;2022-11-20T09:26:39;9.82;;;8.93;;
19675;SDS011;39539;52.202;9.876;2022-11-20T09:29:05;10.00;;;9.10;;
19675;SDS011;39539;52.202;9.876;2022-11-20T09:31:30;9.88;;;8.98;;
19675;SDS011;39539;52.202;9.876;2022-11-20T09:33:57;10.43;;;9.43;;
19675;SDS011;39539;52.202;9.876;2022-11-20T09:36:22;10.45;;;9.45;;
19675;SDS011;39539;52.202;9.876;2022-11-20T09:38:48;11.38;;;10.25;;
19675;SDS011;39539;52.202;9.876;2022-11-20T09:55:14;11.32;;;10.27;;
19675;SDS011;39539;52.202;9.876;2022-11-20T09:57:41;11.85;;;10.85;;
19675;SDS011;39539;52.202;9.876;2022-11-20T10:00:10;12.40;;;11.20;;
19675;SDS011;39539;52.202;9.876;2022-11-20T10:05:21;12.68;;;11.48;;
19675;SDS011;39539;52.202;9.876;2022-11-20T10:29:47;12.38;;;11.27;;
19675;SDS011;39539;52.202;9.876;2022-11-20T10:32:28;12.80;;;11.70;;
19675;SDS011;39539;52.202;9.876;2022-11-20T10:35:01;13.18;;;11.85;;
19675;SDS011;39539;52.202;9.876;2022-11-20T10:37:35;14.50;;;13.30;;
19675;SDS011;39539;52.202;9.876;2022-11-20T10:40:15;14.32;;;13.07;;
19675;SDS011;39539;52.202;9.876;2022-11-20T10:42:50;14.38;;;13.18;;
19675;SDS011;39539;52.202;9.876;2022-11-20T10:45:21;14.30;;;13.10;;
19675;SDS011;39539;52.202;9.876;2022-11-20T10:47:54;14.32;;;12.95;;
19675;SDS011;39539;52.202;9.876;2022-11-20T10:50:32;15.02;;;13.63;;
19675;SDS011;39539;52.202;9.876;2022-11-20T10:55:40;13.70;;;12.50;;
19675;SDS011;39539;52.202;9.876;2022-11-20T10:58:16;12.70;;;11.70;;
19675;SDS011;39539;52.202;9.876;2022-11-20T11:00:53;12.85;;;11.80;;
19675;SDS011;39539;52.202;9.876;2022-11-20T11:03:28;13.10;;;12.00;;
19675;SDS011;39539;52.202;9.876;2022-11-20T11:06:03;13.18;;;12.07;;
19675;SDS011;39539;52.202;9.876;2022-11-20T11:08:36;13.30;;;12.10;;
19675;SDS011;39539;52.202;9.876;2022-11-20T11:13:49;13.20;;;12.10;;
19675;SDS011;39539;52.202;9.876;2022-11-20T11:16:23;13.98;;;12.77;;
19675;SDS011;39539;52.202;9.876;2022-11-20T11:18:50;13.43;;;12.23;;
19675;SDS011;39539;52.202;9.876;2022-11-20T11:21:22;14.02;;;12.73;;
19675;SDS011;39539;52.202;9.876;2022-11-20T11:23:57;13.48;;;12.38;;
19675;SDS011;39539;52.202;9.876;2022-11-20T11:26:24;13.57;;;12.23;;
19675;SDS011;39539;52.202;9.876;2022-11-20T11:28:57;14.40;;;13.00;;
19675;SDS011;39539;52.202;9.876;2022-11-20T11:31:29;14.88;;;13.63;;
19675;SDS011;39539;52.202;9.876;2022-11-20T11:34:05;14.10;;;12.90;;
19675;SDS011;39539;52.202;9.876;2022-11-20T11:36:37;14.43;;;13.23;;
19675;SDS011;39539;52.202;9.876;2022-11-20T11:39:03;13.40;;;12.00;;
19675;SDS011;39539;52.202;9.876;2022-11-20T11:41:32;13.25;;;12.05;;
19675;SDS011;39539;52.202;9.876;2022-11-20T11:44:47;13.98;;;12.63;;
19675;SDS011;39539;52.202;9.876;2022-11-20T11:49:49;14.10;;;12.60;;
19675;SDS011;39539;52.202;9.876;2022-11-20T11:52:25;12.15;;;11.15;;
19675;SDS011;39539;52.202;9.876;2022-11-20T12:03:02;12.73;;;11.45;;
19675;SDS011;39539;52.202;9.876;2022-11-20T12:05:38;13.65;;;12.35;;
19675;SDS011;39539;52.202;9.876;2022-11-20T12:10:41;14.00;;;12.68;;
19675;SDS011;39539;52.202;9.876;2022-11-20T12:15:58;14.25;;;13.00;;
19675;SDS011;39539;52.202;9.876;2022-11-20T12:18:24;14.63;;;13.30;;
19675;SDS011;39539;52.202;9.876;2022-11-20T12:26:07;14.35;;;13.05;;
19675;SDS011;39539;52.202;9.876;2022-11-20T12:42:12;13.60;;;12.43;;
19675;SDS011;39539;52.202;9.876;2022-11-20T12:45:05;15.25;;;13.75;;
19675;SDS011;39539;52.202;9.876;2022-11-20T12:53:18;15.73;;;14.15;;
19675;SDS011;39539;52.202;9.876;2022-11-20T12:56:40;15.30;;;13.90;;
19675;SDS011;39539;52.202;9.876;2022-11-20T13:01:47;13.48;;;12.25;;
19675;SDS011;39539;52.202;9.876;2022-11-20T13:07:03;14.00;;;12.80;;
19675;SDS011;39539;52.202;9.876;2022-11-20T13:09:32;13.98;;;12.77;;
19675;SDS011;39539;52.202;9.876;2022-11-20T13:18:08;13.80;;;12.60;;
19675;SDS011;39539;52.202;9.876;2022-11-20T13:20:36;13.57;;;12.38;;
19675;SDS011;39539;52.202;9.876;2022-11-20T13:23:07;12.88;;;11.73;;
19675;SDS011;39539;52.202;9.876;2022-11-20T13:25:33;12.77;;;11.57;;
19675;SDS011;39539;52.202;9.876;2022-11-20T13:28:04;13.32;;;12.05;;
19675;SDS011;39539;52.202;9.876;2022-11-20T13:30:36;14.10;;;12.80;;
19675;SDS011;39539;52.202;9.876;2022-11-20T13:36:07;13.98;;;12.60;;
19675;SDS011;39539;52.202;9.876;2022-11-20T13:38:49;13.73;;;12.38;;
19675;SDS011;39539;52.202;9.876;2022-11-20T13:41:30;12.55;;;11.45;;
19675;SDS011;39539;52.202;9.876;2022-11-20T13:46:46;13.75;;;12.40;;
19675;SDS011;39539;52.202;9.876;2022-11-20T13:51:54;13.35;;;12.15;;
19675;SDS011;39539;52.202;9.876;2022-11-20T14:00:22;12.27;;;11.18;;
19675;SDS011;39539;52.202;9.876;2022-11-20T14:03:13;13.02;;;11.82;;
19675;SDS011;39539;52.202;9.876;2022-11-20T14:05:56;11.80;;;10.60;;
19675;SDS011;39539;52.202;9.876;2022-11-20T14:08:36;12.38;;;10.88;;
19675;SDS011;39539;52.202;9.876;2022-11-20T14:11:15;12.68;;;11.57;;
19675;SDS011;39539;52.202;9.876;2022-11-20T14:16:22;11.95;;;10.85;;
19675;SDS011;39539;52.202;9.876;2022-11-20T14:18:49;12.45;;;11.25;;
19675;SDS011;39539;52.202;9.876;2022-11-20T14:21:21;13.55;;;11.68;;
19675;SDS011;39539;52.202;9.876;2022-11-20T14:24:02;12.30;;;11.20;;
19675;SDS011;39539;52.202;9.876;2022-11-20T14:26:29;12.07;;;10.80;;
19675;SDS011;39539;52.202;9.876;2022-11-20T14:28:54;12.50;;;11.40;;
19675;SDS011;39539;52.202;9.876;2022-11-20T14:31:23;13.00;;;11.88;;
19675;SDS011;39539;52.202;9.876;2022-11-20T14:33:54;12.68;;;11.43;;
19675;SDS011;39539;52.202;9.876;2022-11-20T14:36:21;12.55;;;11.45;;
19675;SDS011;39539;52.202;9.876;2022-11-20T14:38:48;12.32;;;11.23;;
19675;SDS011;39539;52.202;9.876;2022-11-20T14:41:17;12.65;;;11.45;;
19675;SDS011;39539;52.202;9.876;2022-11-20T14:43:49;13.30;;;12.20;;
19675;SDS011;39539;52.202;9.876;2022-11-20T14:46:22;12.23;;;11.13;;
19675;SDS011;39539;52.202;9.876;2022-11-20T14:48:53;12.18;;;11.15;;
19675;SDS011;39539;52.202;9.876;2022-11-20T14:51:39;12.15;;;11.05;;
19675;SDS011;39539;52.202;9.876;2022-11-20T14:54:11;12.10;;;11.00;;
19675;SDS011;39539;52.202;9.876;2022-11-20T14:56:41;12.13;;;10.93;;
19675;SDS011;39539;52.202;9.876;2022-11-20T14:59:22;11.75;;;10.65;;
19675;SDS011;39539;52.202;9.876;2022-11-20T15:04:26;11.88;;;10.77;;
19675;SDS011;39539;52.202;9.876;2022-11-20T15:06:53;13.20;;;11.98;;
19675;SDS011;39539;52.202;9.876;2022-11-20T15:09:20;13.90;;;10.95;;
19675;SDS011;39539;52.202;9.876;2022-11-20T15:11:55;11.85;;;10.70;;
19675;SDS011;39539;52.202;9.876;2022-11-20T15:14:23;14.05;;;12.68;;
19675;SDS011;39539;52.202;9.876;2022-11-20T15:16:51;13.23;;;12.02;;
19675;SDS011;39539;52.202;9.876;2022-11-20T15:19:18;14.23;;;12.30;;
19675;SDS011;39539;52.202;9.876;2022-11-20T15:21:45;12.93;;;11.73;;
19675;SDS011;39539;52.202;9.876;2022-11-20T15:24:11;12.98;;;11.68;;
19675;SDS011;39539;52.202;9.876;2022-11-20T15:26:36;13.25;;;12.05;;
19675;SDS011;39539;52.202;9.876;2022-11-20T15:29:04;13.40;;;12.20;;
19675;SDS011;39539;52.202;9.876;2022-11-20T15:31:32;13.50;;;12.20;;
19675;SDS011;39539;52.202;9.876;2022-11-20T15:33:58;13.98;;;12.55;;
19675;SDS011;39539;52.202;9.876;2022-11-20T15:36:23;15.60;;;12.20;;
19675;SDS011;39539;52.202;9.876;2022-11-20T15:38:48;12.90;;;11.70;;
19675;SDS011;39539;52.202;9.876;2022-11-20T15:41:13;12.77;;;11.65;;
19675;SDS011;39539;52.202;9.876;2022-11-20T15:43:39;13.75;;;12.45;;
19675;SDS011;39539;52.202;9.876;2022-11-20T15:46:05;13.63;;;12.32;;
19675;SDS011;39539;52.202;9.876;2022-11-20T15:48:36;13.85;;;12.45;;
19675;SDS011;39539;52.202;9.876;2022-11-20T15:53:39;13.23;;;11.93;;
19675;SDS011;39539;52.202;9.876;2022-11-20T15:56:09;14.90;;;12.68;;
19675;SDS011;39539;52.202;9.876;2022-11-20T15:58:36;13.25;;;11.95;;
19675;SDS011;39539;52.202;9.876;2022-11-20T16:01:02;13.77;;;12.38;;
19675;SDS011;39539;52.202;9.876;2022-11-20T16:03:27;14.13;;;12.40;;
19675;SDS011;39539;52.202;9.876;2022-11-20T16:05:53;13.52;;;12.23;;
19675;SDS011;39539;52.202;9.876;2022-11-20T16:08:18;15.32;;;13.73;;
19675;SDS011;39539;52.202;9.876;2022-11-20T16:10:43;14.27;;;12.77;;
19675;SDS011;39539;52.202;9.876;2022-11-20T16:13:16;14.10;;;12.70;;
19675;SDS011;39539;52.202;9.876;2022-11-20T16:16:05;18.70;;;14.50;;
19675;SDS011;39539;52.202;9.876;2022-11-20T16:18:34;15.70;;;14.18;;
19675;SDS011;39539;52.202;9.876;2022-11-20T16:20:59;15.65;;;13.73;;
19675;SDS011;39539;52.202;9.876;2022-11-20T16:23:25;16.73;;;15.02;;
19675;SDS011;39539;52.202;9.876;2022-11-20T16:25:50;16.73;;;14.98;;
19675;SDS011;39539;52.202;9.876;2022-11-20T16:28:16;17.50;;;15.70;;
19675;SDS011;39539;52.202;9.876;2022-11-20T16:30:42;15.73;;;14.15;;
19675;SDS011;39539;52.202;9.876;2022-11-20T16:33:11;17.50;;;15.48;;
19675;SDS011;39539;52.202;9.876;2022-11-20T16:35:38;17.05;;;15.35;;
19675;SDS011;39539;52.202;9.876;2022-11-20T16:38:04;16.08;;;14.40;;
19675;SDS011;39539;52.202;9.876;2022-11-20T16:40:29;16.10;;;14.27;;